Flight Track Log - Related Links

Times and Time Zones

All times are in EDT time to prevent confusion due to time zone crossing. See the AKX422 flight status page for this flight to view local times or setup timezone preferences in your user account.

Time Position Orientation Groundspeed Altitude Reporting Facility
EDT Latitude Longitude Course Direction KTS MPH feet Rate Location/Type
Thu 07:47:00 PM 33.7435 131.0505 72° East  Level Estimated
Thu 07:48:00 PM 33.7745 131.1708 73° East  Level Estimated
Thu 07:49:00 PM 33.8054 131.2912 73° East  Level Estimated
Thu 07:50:00 PM 33.8362 131.4117 73° East  Level Estimated
Thu 07:51:00 PM 33.8668 131.5323 73° East  Level Estimated
Thu 07:52:00 PM 33.8974 131.6530 73° East  Level Estimated
Thu 07:53:00 PM 33.9278 131.7737 73° East  Level Estimated
Thu 07:54:00 PM 33.9581 131.8945 73° East  Level Estimated
Thu 07:55:00 PM 33.9883 132.0155 73° East  Level Estimated
Thu 07:56:00 PM 34.0184 132.1365 73° East  Level Estimated
Thu 07:57:00 PM 34.0484 132.2576 73° East  Level Estimated
Thu 07:58:00 PM 34.0782 132.3788 73° East  Level Estimated
Thu 07:59:00 PM 34.1079 132.5000 73° East  Level Estimated
Thu 08:00:00 PM 34.1375 132.6214 74° East  Level Estimated
Thu 08:01:00 PM 34.1670 132.7428 74° East  Level Estimated
Thu 08:02:00 PM 34.1964 132.8643 74° East  Level Estimated
Thu 08:03:00 PM 34.2256 132.9859 74° East  Level Estimated
Thu 08:04:00 PM 34.2547 133.1076 74° East  Level Estimated
Thu 08:05:00 PM 34.2837 133.2294 74° East  Level Estimated
Thu 08:06:00 PM 34.3126 133.3513 74° East  Level Estimated
Thu 08:07:00 PM 34.3414 133.4732 74° East  Level Estimated
Thu 08:08:00 PM 34.3700 133.5952 74° East  Level Estimated
Thu 08:09:00 PM 34.3985 133.7173 74° East  Level Estimated
Thu 08:10:00 PM 34.4269 133.8395 74° East  Level Estimated
Thu 08:11:00 PM 34.4552 133.9618 74° East  Level Estimated
Thu 08:12:00 PM 34.4833 134.0842 74° East  Level Estimated
Thu 08:13:00 PM 34.5114 134.2066 74° East  Level Estimated
Thu 08:14:00 PM 34.5393 134.3291 75° East  Level Estimated
Thu 08:15:00 PM 34.5671 134.4517 75° East  Level Estimated
Thu 08:16:00 PM 34.5947 134.5744 75° East  Level Estimated
Thu 08:17:00 PM 34.6223 134.6972 75° East  Level Estimated
Thu 08:18:00 PM 34.6497 134.8200 75° East  Level Estimated
Thu 08:19:00 PM 34.6770 134.9430 75° East  Level Estimated
Thu 08:20:00 PM 34.7042 135.0660 75° East  Level Estimated
Thu 08:21:00 PM 34.7312 135.1891 75° East  Level Estimated
Thu 08:22:00 PM 34.7581 135.3122 75° East  Level Estimated
Thu 08:23:00 PM 34.7849 135.4355 75° East  Level Estimated
Thu 08:24:00 PM 34.7855 135.4382 75° East  Level Estimated
Thu 08:25:00 PM 34.7855 135.4382 141° Southeast  Level Estimated
Thu 08:26:00 PM 34.7855 135.4382 141° Southeast  Level Estimated
Thu 08:27:00 PM 34.7855 135.4382 141° Southeast  Level Estimated
Thu 08:28:00 PM 34.7855 135.4382 141° Southeast  Level Estimated
Thu 08:29:00 PM 34.7855 135.4382 141° Southeast  Level Estimated
Thu 08:30:00 PM 34.7855 135.4382 141° Southeast  Level Estimated
Thu 08:31:00 PM 34.7855 135.4382 141° Southeast  Level Estimated
Thu 08:32:00 PM 34.7855 135.4382 141° Southeast  Level Estimated
Thu 08:33:00 PM 34.7855 135.4382 141° Southeast  Level Estimated
Thu 08:34:00 PM 34.7855 135.4382 141° Southeast  Level Estimated

Login

Don't have an account? Register now (free) for customized features, flight alerts, and more!